createdAt,value
2022-09-03T00:00:15.260Z,44.95
2022-09-03T00:02:50.737Z,44.93
2022-09-03T00:05:25.021Z,44.51
2022-09-03T00:08:03.421Z,44.37
2022-09-03T00:10:38.763Z,44.69
2022-09-03T00:13:10.401Z,44.41
2022-09-03T00:15:40.555Z,44.31
2022-09-03T00:18:12.883Z,44.40
2022-09-03T00:20:45.020Z,44.43
2022-09-03T00:23:19.802Z,44.47
2022-09-03T00:25:54.919Z,44.41
2022-09-03T00:28:28.921Z,44.40
2022-09-03T00:31:08.205Z,44.32
2022-09-03T00:33:39.862Z,44.60
2022-09-03T00:36:17.041Z,44.51
2022-09-03T00:38:44.400Z,44.51
2022-09-03T00:41:28.762Z,44.75
2022-09-03T00:44:31.442Z,44.48
2022-09-03T00:47:09.382Z,44.62
2022-09-03T00:49:55.997Z,44.73
2022-09-03T00:52:41.107Z,44.71
2022-09-03T00:55:21.556Z,44.68
2022-09-03T00:58:04.773Z,44.54
2022-09-03T01:00:33.722Z,44.50
2022-09-03T01:03:07.878Z,44.79
2022-09-03T01:05:49.402Z,44.63
2022-09-03T01:08:44.042Z,44.61
2022-09-03T01:11:25.267Z,44.51
2022-09-03T01:14:03.341Z,44.55
2022-09-03T01:16:42.662Z,44.44
2022-09-03T01:19:33.841Z,44.31
2022-09-03T01:22:24.571Z,43.96
2022-09-03T01:25:30.785Z,43.40
2022-09-03T01:28:16.872Z,43.64
2022-09-03T01:30:51.147Z,43.39
2022-09-03T01:33:28.557Z,42.96
2022-09-03T01:36:04.755Z,42.95
2022-09-03T01:38:40.341Z,42.16
2022-09-03T01:41:20.907Z,43.94
2022-09-03T01:44:02.487Z,45.51
2022-09-03T01:46:39.227Z,45.50
2022-09-03T01:49:18.849Z,47.18
2022-09-03T01:51:46.207Z,48.26
2022-09-03T01:54:37.174Z,48.78
2022-09-03T01:57:37.528Z,49.72
2022-09-03T02:00:11.116Z,49.66
2022-09-03T02:02:40.178Z,49.87
2022-09-03T02:05:10.598Z,49.85
2022-09-03T02:07:40.554Z,49.74
2022-09-03T02:10:11.316Z,50.09
2022-09-03T02:12:41.957Z,49.91
2022-09-03T02:15:14.796Z,50.48
2022-09-03T02:17:45.595Z,50.85
2022-09-03T02:20:19.115Z,50.55
2022-09-03T02:22:48.099Z,50.07
2022-09-03T02:25:16.280Z,50.11
2022-09-03T02:27:45.076Z,50.09
2022-09-03T02:30:13.976Z,50.42
2022-09-03T02:32:41.315Z,49.51
2022-09-03T02:35:09.724Z,49.65
2022-09-03T02:37:36.876Z,50.04
2022-09-03T02:40:04.642Z,50.33
2022-09-03T02:42:31.794Z,49.52
2022-09-03T02:45:08.176Z,50.06
2022-09-03T02:47:40.976Z,49.18
2022-09-03T02:50:09.156Z,50.45
2022-09-03T02:52:36.318Z,50.35
2022-09-03T02:55:03.758Z,49.80
2022-09-03T02:57:30.895Z,50.61
2022-09-03T02:59:58.018Z,50.22
2022-09-03T03:02:25.211Z,50.39
2022-09-03T03:04:54.156Z,50.32
2022-09-03T03:07:21.596Z,50.54
2022-09-03T03:09:48.754Z,50.69
2022-09-03T03:12:15.874Z,50.29
2022-09-03T03:14:43.036Z,50.11
2022-09-03T03:17:10.156Z,50.01
2022-09-03T03:19:37.287Z,49.34
2022-09-03T03:22:06.996Z,49.93
2022-09-03T03:24:34.095Z,50.18
2022-09-03T03:27:01.276Z,50.27
2022-09-03T03:29:28.343Z,49.91
2022-09-03T03:31:55.503Z,49.76
2022-09-03T03:34:22.583Z,49.16
2022-09-03T03:36:49.693Z,49.85
2022-09-03T03:39:18.252Z,49.98
2022-09-03T03:41:45.381Z,49.70
2022-09-03T03:44:12.441Z,50.36
2022-09-03T03:46:41.483Z,50.58
2022-09-03T03:49:09.381Z,50.48
2022-09-03T03:51:38.521Z,50.55
2022-09-03T03:54:05.914Z,50.48
2022-09-03T03:56:35.242Z,50.69
2022-09-03T03:59:02.741Z,50.68
2022-09-03T04:01:30.416Z,50.45
2022-09-03T04:03:59.044Z,50.61
2022-09-03T04:06:27.001Z,50.95
2022-09-03T04:08:54.241Z,50.95
2022-09-03T04:11:24.105Z,50.97
2022-09-03T04:13:53.962Z,50.76
2022-09-03T04:16:22.930Z,50.93
2022-09-03T04:18:51.225Z,50.69
2022-09-03T04:21:20.503Z,50.93
2022-09-03T04:23:49.442Z,50.74
2022-09-03T04:26:21.162Z,50.93
2022-09-03T04:28:48.802Z,50.79
2022-09-03T04:31:19.843Z,51.17
2022-09-03T04:33:47.484Z,50.90
2022-09-03T04:36:16.424Z,51.29
2022-09-03T04:38:45.464Z,51.16
2022-09-03T04:41:14.515Z,51.39
2022-09-03T04:43:42.487Z,51.41
2022-09-03T04:46:16.048Z,51.29
2022-09-03T04:48:49.063Z,51.58
2022-09-03T04:51:18.662Z,51.52
2022-09-03T04:53:47.702Z,51.40
2022-09-03T04:56:17.563Z,51.69
2022-09-03T04:58:45.823Z,51.44
2022-09-03T05:01:18.357Z,51.64
2022-09-03T05:03:48.463Z,51.87
2022-09-03T05:06:15.547Z,51.43
2022-09-03T05:08:43.102Z,51.58
2022-09-03T05:11:10.666Z,51.68
2022-09-03T05:13:37.865Z,51.53
2022-09-03T05:16:07.184Z,51.46
2022-09-03T05:18:34.982Z,51.48
2022-09-03T05:21:06.163Z,51.77
2022-09-03T05:23:37.812Z,51.45
2022-09-03T05:26:07.334Z,51.63
2022-09-03T05:28:40.006Z,51.52
2022-09-03T05:31:10.224Z,51.50
2022-09-03T05:33:39.375Z,51.58
2022-09-03T05:36:10.637Z,51.69
2022-09-03T05:38:38.635Z,51.49
2022-09-03T05:41:08.396Z,52.08
2022-09-03T05:43:36.714Z,51.77
2022-09-03T05:46:06.043Z,51.71
2022-09-03T05:48:35.338Z,51.58
2022-09-03T05:51:04.495Z,51.87
2022-09-03T05:53:34.951Z,51.77
2022-09-03T05:56:04.972Z,51.71
2022-09-03T05:58:33.086Z,51.52
2022-09-03T06:01:00.189Z,51.65
2022-09-03T06:03:27.685Z,51.67
2022-09-03T06:05:55.455Z,51.68
2022-09-03T06:08:22.920Z,51.54
2022-09-03T06:10:51.449Z,51.55
2022-09-03T06:13:18.658Z,51.60
2022-09-03T06:15:45.771Z,51.12
2022-09-03T06:18:12.831Z,51.63
2022-09-03T06:20:39.950Z,51.79
2022-09-03T06:23:07.090Z,52.12
2022-09-03T06:25:34.130Z,52.07
2022-09-03T06:28:03.078Z,52.30
2022-09-03T06:30:30.170Z,52.08
2022-09-03T06:32:57.336Z,51.84
2022-09-03T06:35:24.471Z,52.07
2022-09-03T06:37:51.793Z,51.76
2022-09-03T06:40:18.911Z,51.87
2022-09-03T06:42:56.950Z,51.36
2022-09-03T06:45:25.640Z,52.16
2022-09-03T06:47:54.390Z,51.66
2022-09-03T06:50:21.582Z,52.15
2022-09-03T06:52:52.270Z,52.30
2022-09-03T06:55:19.352Z,52.10
2022-09-03T06:57:46.377Z,52.09
2022-09-03T07:00:15.231Z,52.11
2022-09-03T07:02:45.051Z,52.33
2022-09-03T07:05:12.236Z,52.32
2022-09-03T07:07:39.302Z,52.25
2022-09-03T07:10:07.841Z,52.36
2022-09-03T07:12:34.942Z,52.33
2022-09-03T07:15:02.021Z,52.55
2022-09-03T07:17:29.123Z,52.78
2022-09-03T07:19:57.761Z,52.54
2022-09-03T07:22:26.067Z,52.67
2022-09-03T07:24:58.803Z,52.63
2022-09-03T07:27:25.922Z,52.55
2022-09-03T07:29:52.982Z,51.91
2022-09-03T07:32:20.121Z,51.84
2022-09-03T07:34:47.201Z,51.38
2022-09-03T07:37:15.704Z,51.80
2022-09-03T07:39:42.818Z,52.28
2022-09-03T07:42:09.942Z,52.11
2022-09-03T07:44:37.047Z,52.44
2022-09-03T07:47:04.242Z,52.38
2022-09-03T07:49:31.383Z,52.66
2022-09-03T07:51:58.423Z,52.44
2022-09-03T07:54:26.981Z,52.05
2022-09-03T07:56:54.168Z,52.14
2022-09-03T07:59:21.267Z,52.12
2022-09-03T08:01:48.701Z,52.11
2022-09-03T08:04:15.830Z,52.39
2022-09-03T08:06:42.982Z,52.65
2022-09-03T08:09:12.602Z,52.61
2022-09-03T08:11:43.992Z,52.49
2022-09-03T08:14:13.304Z,52.47
2022-09-03T08:16:42.844Z,52.07
2022-09-03T08:19:10.122Z,52.65
2022-09-03T08:21:37.281Z,52.76
2022-09-03T08:24:05.041Z,52.76
2022-09-03T08:26:33.840Z,52.62
2022-09-03T08:29:03.941Z,52.23
2022-09-03T08:31:32.194Z,52.62
2022-09-03T08:34:02.174Z,52.69
2022-09-03T08:36:31.461Z,52.57
2022-09-03T08:39:00.321Z,52.83
2022-09-03T08:41:39.081Z,52.61
2022-09-03T08:44:22.243Z,52.59
2022-09-03T08:46:55.649Z,52.93
2022-09-03T08:49:29.062Z,52.59
2022-09-03T08:52:02.561Z,52.09
2022-09-03T08:54:32.561Z,52.68
2022-09-03T08:57:03.806Z,52.56
2022-09-03T08:59:33.204Z,52.53
2022-09-03T09:02:21.860Z,52.81
2022-09-03T09:05:03.543Z,52.70
2022-09-03T09:07:44.742Z,52.47
2022-09-03T09:10:23.184Z,52.48
2022-09-03T09:13:08.940Z,51.70
2022-09-03T09:15:48.877Z,51.62
2022-09-03T09:18:27.783Z,52.16
2022-09-03T09:21:03.042Z,52.45
2022-09-03T09:23:36.640Z,52.27
2022-09-03T09:26:10.501Z,51.38
2022-09-03T09:28:39.306Z,51.46
2022-09-03T09:31:12.194Z,51.80
2022-09-03T09:33:39.524Z,51.65
2022-09-03T09:36:10.501Z,51.61
2022-09-03T09:38:39.722Z,50.62
2022-09-03T09:41:12.522Z,51.45
2022-09-03T09:43:40.663Z,50.40
2022-09-03T09:46:14.682Z,51.16
2022-09-03T09:48:50.367Z,51.63
2022-09-03T09:51:22.664Z,52.26
2022-09-03T09:54:02.103Z,52.24
2022-09-03T09:56:29.662Z,52.58
2022-09-03T09:59:04.765Z,52.65
2022-09-03T10:01:35.840Z,52.78
2022-09-03T10:04:10.985Z,52.33
2022-09-03T10:06:39.504Z,52.49
2022-09-03T10:09:08.805Z,52.78
2022-09-03T10:11:38.946Z,52.64
2022-09-03T10:14:14.948Z,52.94
2022-09-03T10:16:54.545Z,52.90
2022-09-03T10:19:34.361Z,52.99
2022-09-03T10:22:10.202Z,52.79
2022-09-03T10:24:52.282Z,52.83
2022-09-03T10:27:20.543Z,52.72
2022-09-03T10:29:47.883Z,52.29
2022-09-03T10:32:34.252Z,52.05
2022-09-03T10:35:20.702Z,52.11
2022-09-03T10:38:00.761Z,52.06
2022-09-03T10:40:38.080Z,51.75
2022-09-03T10:43:24.261Z,50.85
2022-09-03T10:46:03.031Z,50.74
2022-09-03T10:48:50.522Z,48.84
2022-09-03T10:51:20.429Z,48.91
2022-09-03T10:54:27.560Z,49.52
2022-09-03T10:57:04.181Z,49.99
2022-09-03T10:59:45.761Z,49.53
2022-09-03T11:02:33.993Z,49.13
2022-09-03T11:05:08.722Z,48.80
2022-09-03T11:07:41.220Z,48.96
2022-09-03T11:10:18.621Z,48.77
2022-09-03T11:12:55.728Z,48.14
2022-09-03T11:15:31.108Z,48.25
2022-09-03T11:18:04.881Z,48.48
2022-09-03T11:20:35.391Z,47.70
2022-09-03T11:23:05.940Z,48.06
2022-09-03T11:25:41.821Z,47.22
2022-09-03T11:28:22.232Z,47.37
2022-09-03T11:31:13.962Z,46.67
2022-09-03T11:33:47.545Z,46.79
2022-09-03T11:36:30.081Z,46.61
2022-09-03T11:38:57.223Z,47.17
2022-09-03T11:41:26.701Z,46.54
2022-09-03T11:43:54.645Z,46.20
2022-09-03T11:46:30.431Z,46.53
2022-09-03T11:49:10.960Z,46.39
2022-09-03T11:51:41.065Z,46.90
2022-09-03T11:54:25.579Z,46.36
2022-09-03T11:57:12.020Z,46.24
2022-09-03T11:59:42.361Z,48.22
2022-09-03T12:02:28.277Z,48.71
2022-09-03T12:05:18.000Z,52.55
2022-09-03T12:08:09.085Z,50.04
2022-09-03T12:10:50.381Z,46.02
2022-09-03T12:13:31.521Z,45.60
2022-09-03T12:16:36.641Z,46.61
2022-09-03T12:19:13.520Z,44.94
2022-09-03T12:21:40.964Z,46.10
2022-09-03T12:24:12.082Z,47.99
2022-09-03T12:26:42.021Z,46.91
2022-09-03T12:29:24.084Z,46.20
2022-09-03T12:31:55.444Z,50.66
2022-09-03T12:34:24.481Z,47.56
2022-09-03T12:36:54.283Z,47.76
2022-09-03T12:42:21.204Z,46.74
2022-09-03T12:44:48.262Z,46.51
2022-09-03T12:47:35.639Z,47.65
2022-09-03T12:50:09.062Z,45.58
2022-09-03T12:52:41.883Z,46.36
2022-09-03T12:55:27.582Z,45.81
2022-09-03T12:58:11.519Z,46.06
2022-09-03T13:00:47.640Z,45.20
2022-09-03T13:03:21.966Z,45.85
2022-09-03T13:05:55.582Z,45.70
2022-09-03T13:08:26.421Z,47.13
2022-09-03T13:10:59.479Z,46.01
2022-09-03T13:13:29.461Z,46.71
2022-09-03T13:16:36.279Z,46.00
2022-09-03T13:19:15.641Z,47.03
2022-09-03T13:21:54.778Z,47.70
2022-09-03T13:24:50.683Z,47.43
2022-09-03T13:27:31.641Z,46.94
2022-09-03T13:30:07.820Z,46.78
2022-09-03T13:32:57.943Z,46.23
2022-09-03T13:35:34.702Z,46.98
2022-09-03T13:38:13.103Z,46.98
2022-09-03T13:40:48.682Z,46.97
2022-09-03T13:43:30.264Z,46.98
2022-09-03T13:46:03.602Z,46.88
2022-09-03T13:48:38.822Z,45.25
2022-09-03T13:51:16.283Z,46.97
2022-09-03T13:53:58.340Z,46.79
2022-09-03T13:56:38.362Z,46.15
2022-09-03T13:59:18.683Z,48.05
2022-09-03T14:02:16.451Z,46.57
2022-09-03T14:04:58.761Z,46.36
2022-09-03T14:07:38.262Z,46.71
2022-09-03T14:10:19.243Z,46.63
2022-09-03T14:12:55.922Z,47.23
2022-09-03T14:15:30.664Z,44.07
2022-09-03T14:18:10.643Z,44.78
2022-09-03T14:20:46.503Z,46.77
2022-09-03T14:23:33.306Z,45.32
2022-09-03T14:26:05.842Z,44.71
2022-09-03T14:28:37.064Z,44.42
2022-09-03T14:31:19.824Z,43.96
2022-09-03T14:34:00.864Z,42.66
2022-09-03T14:36:35.983Z,44.21
2022-09-03T14:39:26.862Z,44.67
2022-09-03T14:42:31.388Z,43.71
2022-09-03T14:45:32.665Z,43.41
2022-09-03T14:48:27.180Z,44.32
2022-09-03T14:51:24.844Z,44.45
2022-09-03T14:54:30.515Z,44.57
2022-09-03T14:57:17.188Z,44.46
2022-09-03T15:00:02.154Z,44.73
2022-09-03T15:02:53.463Z,44.00
2022-09-03T15:05:43.212Z,44.28
2022-09-03T15:08:28.423Z,46.35
2022-09-03T15:10:59.886Z,45.62
2022-09-03T15:13:33.623Z,44.95
2022-09-03T15:16:21.053Z,44.18
2022-09-03T15:19:10.265Z,44.10
2022-09-03T15:21:56.343Z,44.11
2022-09-03T15:24:37.362Z,44.11
2022-09-03T15:27:19.654Z,44.17
2022-09-03T15:29:52.061Z,43.82
2022-09-03T15:32:38.984Z,43.85
2022-09-03T15:35:09.479Z,43.80
2022-09-03T15:37:49.064Z,43.58
2022-09-03T15:40:29.003Z,43.92
2022-09-03T15:43:06.982Z,43.75
2022-09-03T15:45:49.517Z,42.93
2022-09-03T15:48:29.477Z,42.01
2022-09-03T15:51:12.426Z,40.80
2022-09-03T15:53:50.845Z,40.73
2022-09-03T15:56:26.983Z,39.05
2022-09-03T15:59:02.902Z,39.39
2022-09-03T16:01:40.264Z,38.63
2022-09-03T16:04:22.603Z,38.82
2022-09-03T16:06:59.482Z,38.66
2022-09-03T16:10:22.750Z,38.46
2022-09-03T16:12:53.655Z,38.13
2022-09-03T16:15:26.123Z,38.02
2022-09-03T16:18:02.586Z,38.01
2022-09-03T16:20:38.984Z,37.93
2022-09-03T16:23:13.144Z,37.85
2022-09-03T16:25:52.423Z,38.76
2022-09-03T16:28:28.703Z,39.08
2022-09-03T16:31:11.946Z,39.71
2022-09-03T16:33:53.343Z,40.44
2022-09-03T16:36:43.646Z,41.33
2022-09-03T16:39:25.653Z,41.45
2022-09-03T16:42:06.626Z,42.05
2022-09-03T16:44:47.602Z,42.03
2022-09-03T16:47:27.004Z,43.20
2022-09-03T16:50:13.783Z,42.38
2022-09-03T16:52:59.421Z,43.47
2022-09-03T16:55:38.881Z,43.23
2022-09-03T16:58:20.895Z,42.80
2022-09-03T17:01:06.675Z,42.87
2022-09-03T17:04:08.102Z,43.01
2022-09-03T17:06:58.743Z,42.19
2022-09-03T17:09:42.341Z,42.85
2022-09-03T17:12:25.523Z,42.53
2022-09-03T17:15:16.963Z,42.05
2022-09-03T17:18:01.303Z,42.62
2022-09-03T17:20:49.511Z,42.13
2022-09-03T17:23:43.185Z,41.75
2022-09-03T17:26:16.963Z,42.88
2022-09-03T17:29:02.502Z,45.42
2022-09-03T17:31:43.832Z,45.22
2022-09-03T17:34:30.983Z,44.95
2022-09-03T17:37:22.102Z,43.99
2022-09-03T17:40:04.554Z,43.99
2022-09-03T17:42:48.582Z,42.71
2022-09-03T17:45:26.923Z,43.76
2022-09-03T17:48:20.561Z,42.52
2022-09-03T17:50:56.082Z,43.11
2022-09-03T17:53:32.322Z,43.25
2022-09-03T17:56:05.184Z,44.38
2022-09-03T17:58:39.283Z,42.60
2022-09-03T18:01:17.508Z,43.19
2022-09-03T18:03:54.303Z,42.17
2022-09-03T18:06:34.283Z,40.84
2022-09-03T18:09:06.522Z,41.16
2022-09-03T18:11:40.581Z,41.69
2022-09-03T18:14:17.463Z,42.66
2022-09-03T18:16:53.044Z,42.38
2022-09-03T18:19:33.622Z,41.93
2022-09-03T18:22:05.479Z,41.63
2022-09-03T18:24:41.647Z,40.52
2022-09-03T18:27:14.922Z,41.52
2022-09-03T18:29:52.371Z,42.50
2022-09-03T18:32:21.582Z,38.73
2022-09-03T18:34:50.260Z,40.38
2022-09-03T18:37:21.340Z,40.94
2022-09-03T18:39:48.664Z,38.16
2022-09-03T18:42:29.139Z,38.95
2022-09-03T18:45:21.367Z,38.63
2022-09-03T18:48:13.930Z,37.82
2022-09-03T18:50:57.443Z,41.15
2022-09-03T18:53:35.922Z,41.14
2022-09-03T18:56:15.876Z,41.52
2022-09-03T18:59:03.099Z,43.67
2022-09-03T19:01:35.631Z,41.01
2022-09-03T19:04:13.606Z,41.91
2022-09-03T19:06:55.180Z,42.19
2022-09-03T19:09:41.859Z,43.12
2022-09-03T19:12:28.721Z,41.71
2022-09-03T19:15:03.440Z,43.03
2022-09-03T19:17:50.641Z,43.62
2022-09-03T19:20:28.580Z,42.84
2022-09-03T19:22:57.220Z,42.95
2022-09-03T19:25:26.560Z,41.65
2022-09-03T19:28:10.981Z,43.17
2022-09-03T19:31:05.927Z,43.31
2022-09-03T19:33:47.040Z,43.38
2022-09-03T19:36:23.381Z,44.15
2022-09-03T19:39:13.260Z,43.81
2022-09-03T19:41:52.842Z,44.46
2022-09-03T19:44:43.641Z,41.34
2022-09-03T19:47:22.392Z,42.15
2022-09-03T19:50:03.612Z,41.61
2022-09-03T19:52:45.061Z,43.18
2022-09-03T19:55:20.999Z,42.89
2022-09-03T19:57:58.020Z,40.80
2022-09-03T20:00:33.070Z,41.89
2022-09-03T20:03:02.976Z,41.41
2022-09-03T20:05:32.079Z,43.21
2022-09-03T20:08:00.539Z,42.19
2022-09-03T20:10:29.142Z,41.72
2022-09-03T20:13:08.459Z,41.90
2022-09-03T20:15:50.838Z,43.02
2022-09-03T20:18:34.021Z,44.34
2022-09-03T20:21:12.340Z,43.73
2022-09-03T20:23:54.788Z,43.53
2022-09-03T20:26:42.079Z,44.35
2022-09-03T20:29:40.361Z,44.58
2022-09-03T20:32:16.740Z,45.23
2022-09-03T20:34:56.101Z,44.20
2022-09-03T20:37:31.920Z,44.09
2022-09-03T20:40:15.311Z,44.89
2022-09-03T20:43:14.786Z,45.85
2022-09-03T20:45:58.288Z,44.73
2022-09-03T20:48:36.291Z,45.65
2022-09-03T20:51:12.960Z,46.13
2022-09-03T20:54:05.918Z,47.61
2022-09-03T20:56:48.180Z,45.81
2022-09-03T20:59:29.213Z,45.96
2022-09-03T21:02:09.220Z,46.05
2022-09-03T21:04:50.649Z,46.07
2022-09-03T21:07:29.453Z,45.94
2022-09-03T21:10:10.212Z,46.44
2022-09-03T21:12:49.362Z,45.99
2022-09-03T21:15:24.292Z,46.28
2022-09-03T21:18:06.962Z,46.67
2022-09-03T21:20:45.812Z,46.46
2022-09-03T21:23:21.751Z,46.98
2022-09-03T21:25:55.910Z,45.58
2022-09-03T21:28:29.031Z,45.99
2022-09-03T21:31:02.994Z,46.36
2022-09-03T21:33:37.352Z,46.37
2022-09-03T21:36:12.235Z,46.19
2022-09-03T21:38:51.555Z,45.50
2022-09-03T21:41:26.131Z,46.50
2022-09-03T21:44:01.129Z,45.67
2022-09-03T21:46:36.051Z,44.87
2022-09-03T21:49:09.633Z,44.60
2022-09-03T21:51:43.910Z,45.83
2022-09-03T21:54:20.551Z,45.97
2022-09-03T21:57:01.052Z,45.98
2022-09-03T21:59:53.956Z,46.26
2022-09-03T22:02:25.373Z,46.10
2022-09-03T22:04:56.482Z,46.90
2022-09-03T22:07:39.745Z,44.68
2022-09-03T22:10:16.686Z,45.19
2022-09-03T22:12:58.662Z,44.48
2022-09-03T22:15:25.841Z,44.88
2022-09-03T22:18:05.724Z,44.60
2022-09-03T22:20:36.722Z,45.69
2022-09-03T22:23:14.961Z,45.16
2022-09-03T22:25:52.641Z,44.52
2022-09-03T22:28:30.041Z,45.83
2022-09-03T22:31:06.381Z,45.81
2022-09-03T22:33:45.206Z,46.22
2022-09-03T22:36:21.326Z,46.57
2022-09-03T22:39:12.502Z,46.58
2022-09-03T22:41:58.843Z,46.17
2022-09-03T22:44:48.822Z,46.48
2022-09-03T22:47:33.912Z,46.64
2022-09-03T22:50:18.522Z,47.21
2022-09-03T22:53:01.102Z,47.14
2022-09-03T22:55:29.361Z,46.84
2022-09-03T22:58:03.863Z,46.00
2022-09-03T23:00:39.881Z,45.71
2022-09-03T23:03:10.786Z,46.26
2022-09-03T23:05:48.983Z,46.78
2022-09-03T23:08:24.641Z,46.65
2022-09-03T23:11:06.183Z,47.13
2022-09-03T23:13:39.402Z,47.52
2022-09-03T23:16:13.991Z,47.58
2022-09-03T23:18:45.563Z,46.71
2022-09-03T23:21:21.582Z,47.15
2022-09-03T23:23:58.503Z,46.65
2022-09-03T23:26:36.201Z,46.92
2022-09-03T23:29:12.235Z,47.67
2022-09-03T23:31:39.724Z,46.48
2022-09-03T23:34:09.127Z,46.98
2022-09-03T23:37:32.059Z,47.48
2022-09-03T23:40:10.323Z,48.14
2022-09-03T23:42:57.187Z,47.29
2022-09-03T23:45:39.371Z,46.72
2022-09-03T23:48:22.464Z,46.89
2022-09-03T23:51:02.054Z,46.92
2022-09-03T23:53:40.242Z,47.94
2022-09-03T23:56:44.202Z,48.64
2022-09-03T23:59:21.344Z,48.38
